Time;durP1;ratioP1;P1;durP2;ratioP2;P2;SDS_P1;SDS_P2;PMS_P1;PMS_P2;Temp;Humidity;BMP_temperature;BMP_pressure;BME280_temperature;BME280_humidity;BME280_pressure;Samples;Min_cycle;Max_cycle;Signal;HPM_P1;HPM_P2
2020/12/21 00:01:52;3789993.00;12.63;8181.37;64792.00;0.22;112.76;;;;;25.00;38.80;;;;;;2245008;61;11712;-67
2020/12/21 00:04:19;4704004.00;15.68;11460.59;198789.00;0.66;343.84;;;;;25.10;38.70;;;;;;2242516;61;12262;-67
2020/12/21 00:06:52;4696229.00;15.65;11429.21;64442.00;0.21;112.16;;;;;25.10;38.70;;;;;;2245728;61;11979;-67
2020/12/21 00:09:19;3852430.00;12.84;8380.88;86326.00;0.29;149.96;;;;;25.10;38.80;;;;;;2240931;61;6790;-67
2020/12/21 00:11:47;4571498.00;15.24;10934.45;52439.00;0.17;91.40;;;;;25.10;38.70;;;;;;2242640;61;12308;-67
2020/12/21 00:14:14;3988089.00;13.29;8825.95;60136.00;0.20;104.71;;;;;25.10;38.60;;;;;;2244738;61;12160;-67
2020/12/21 00:16:51;121318280.00;404.39;72334608.00;117344.00;0.39;203.50;;;;;25.10;38.60;;;;;;2242677;61;5506;-67
2020/12/21 00:19:20;4280198.00;14.27;9840.74;70623.00;0.24;122.84;;;;;25.10;38.60;;;;;;2246143;61;13644;-67
2020/12/21 00:21:50;5017058.00;16.72;12778.98;265206.00;0.88;458.10;;;;;25.00;38.60;;;;;;2243393;61;11969;-67
2020/12/21 00:24:18;3695191.00;12.32;7884.70;7103.00;0.02;12.93;;;;;25.00;38.60;;;;;;2246136;61;6988;-67
2020/12/21 00:26:49;3900269.00;13.00;8536.00;60397.00;0.20;105.16;;;;;25.00;38.60;;;;;;2242605;61;7343;-67
2020/12/21 00:29:17;124838544.00;416.13;78822192.00;21054.00;0.07;37.10;;;;;25.00;38.60;;;;;;2245366;61;12773;-67
2020/12/21 00:31:44;4263802.00;14.21;9781.67;61921.00;0.21;107.80;;;;;25.00;38.60;;;;;;2239243;61;8165;-67
2020/12/21 00:34:16;4336570.00;14.46;10045.84;62677.00;0.21;109.10;;;;;25.00;38.60;;;;;;2246593;61;11827;-67
2020/12/21 00:36:45;4434385.00;14.78;10409.10;76232.00;0.25;132.53;;;;;25.00;38.50;;;;;;2241700;61;5893;-67
2020/12/21 00:39:12;4599159.00;15.33;11042.77;63362.00;0.21;110.29;;;;;25.00;38.60;;;;;;2247333;61;5821;-67
2020/12/21 00:41:42;4139838.00;13.80;9343.26;90314.00;0.30;156.85;;;;;25.00;38.50;;;;;;2245085;61;5665;-67
2020/12/21 00:44:09;5028524.00;16.76;12829.34;122992.00;0.41;213.24;;;;;25.00;38.50;;;;;;2243417;61;7160;-67
2020/12/21 00:46:35;5602301.00;18.67;15549.65;117123.00;0.39;203.12;;;;;25.00;38.50;;;;;;2246142;61;6473;-67
2020/12/21 00:49:06;124670288.00;415.57;78503608.00;49794.00;0.17;86.83;;;;;25.00;38.60;;;;;;2245467;61;5889;-67
2020/12/21 00:51:33;5016544.00;16.72;12776.72;112471.00;0.37;195.09;;;;;25.00;38.50;;;;;;2245219;61;5582;-67
2020/12/21 00:53:59;122523760.00;408.41;74514432.00;86098.00;0.29;149.57;;;;;25.00;38.50;;;;;;2245814;61;6697;-67
2020/12/21 00:56:26;4817532.00;16.06;11926.24;262779.00;0.88;453.93;;;;;25.10;38.50;;;;;;2247190;61;7151;-67
2020/12/21 00:58:53;5054890.00;16.85;12945.73;41307.00;0.14;72.15;;;;;25.00;38.40;;;;;;2242267;61;7343;-67
2020/12/21 01:01:28;4897410.00;16.32;12262.29;100957.00;0.34;175.22;;;;;25.00;38.40;;;;;;2244099;61;13551;-67
2020/12/21 01:03:59;4644644.00;15.48;11222.61;54985.00;0.18;95.81;;;;;25.00;38.50;;;;;;2245437;61;6881;-67
2020/12/21 01:06:25;4304932.00;14.35;9930.35;246119.00;0.82;425.28;;;;;24.90;38.50;;;;;;2246028;61;6674;-67
2020/12/21 01:08:57;5152731.00;17.18;13384.67;145022.00;0.48;251.23;;;;;25.00;38.60;;;;;;2242908;61;6243;-67
2020/12/21 01:11:24;4661636.00;15.54;11290.35;29383.00;0.10;51.52;;;;;25.00;38.50;;;;;;2245484;61;8686;-67
2020/12/21 01:13:51;5316249.00;17.72;14143.46;152615.00;0.51;264.31;;;;;25.00;38.40;;;;;;2239992;61;5814;-67
2020/12/21 01:16:21;4076687.00;13.59;9125.44;5717.00;0.02;10.53;;;;;25.00;38.50;;;;;;2245401;61;10325;-67
2020/12/21 01:18:48;4073250.00;13.58;9113.69;61543.00;0.21;107.14;;;;;24.90;38.30;;;;;;2246657;61;10698;-67
2020/12/21 01:21:25;4704059.00;15.68;11460.82;109298.00;0.36;189.62;;;;;25.00;38.40;;;;;;2245993;61;6050;-67
2020/12/21 01:23:52;132029400.00;440.10;93257856.00;111534.00;0.37;193.48;;;;;24.90;38.30;;;;;;2246214;61;13648;-67
2020/12/21 01:26:19;3943553.00;13.15;8678.06;70661.00;0.24;122.90;;;;;25.00;38.40;;;;;;2242413;61;12009;-68
2020/12/21 01:28:49;4081792.00;13.61;9142.91;69852.00;0.23;121.50;;;;;25.00;38.30;;;;;;2241718;61;10372;-68
2020/12/21 01:31:17;4542432.00;15.14;10821.48;197264.00;0.66;341.21;;;;;25.00;38.40;;;;;;2242137;61;11834;-67
2020/12/21 01:33:45;122752880.00;409.18;74933624.00;225446.00;0.75;389.71;;;;;25.00;38.40;;;;;;2242315;61;12073;-67
2020/12/21 01:36:11;4933928.00;16.45;12418.28;39409.00;0.13;68.87;;;;;25.00;38.30;;;;;;2246313;61;7238;-67
2020/12/21 01:38:38;4137787.00;13.79;9336.13;117135.00;0.39;203.14;;;;;25.00;38.40;;;;;;2244890;61;5623;-67
2020/12/21 01:41:08;3712686.00;12.38;7938.89;78175.00;0.26;135.88;;;;;25.00;38.30;;;;;;2246237;61;11933;-67
2020/12/21 01:43:38;4477461.00;14.92;10572.09;137138.00;0.46;237.64;;;;;25.00;38.30;;;;;;2245521;61;8796;-67
2020/12/21 01:46:16;4719767.00;15.73;11524.42;60755.00;0.20;105.78;;;;;25.00;38.20;;;;;;2246104;61;7141;-67
2020/12/21 01:48:44;4959647.00;16.53;12529.04;89467.00;0.30;155.39;;;;;25.00;38.20;;;;;;2245769;61;11627;-67
2020/12/21 01:51:22;4320967.00;14.40;9988.76;162962.00;0.54;282.14;;;;;24.90;38.20;;;;;;2242685;61;7214;-67
2020/12/21 01:53:49;4123081.00;13.74;9285.11;71677.00;0.24;124.66;;;;;24.90;38.20;;;;;;2243037;61;8570;-67
2020/12/21 01:56:17;4426587.00;14.76;10379.79;59694.00;0.20;103.95;;;;;25.00;38.20;;;;;;2241419;61;5690;-67
2020/12/21 01:58:44;5109915.00;17.03;13191.21;88050.00;0.29;152.94;;;;;25.00;38.10;;;;;;2247801;61;6857;-67
2020/12/21 02:01:17;4023879.00;13.41;8946.08;43398.00;0.14;75.77;;;;;25.00;38.10;;;;;;2246744;61;11969;-67
2020/12/21 02:03:44;4306515.00;14.36;9936.11;76252.00;0.25;132.56;;;;;25.00;38.10;;;;;;2251062;40;8618;-65
2020/12/21 02:06:11;4628454.00;15.43;11158.35;92834.00;0.31;161.20;;;;;24.90;38.00;;;;;;2250317;61;2112;-65
2020/12/21 02:08:38;3953388.00;13.18;8710.57;16782.00;0.06;29.70;;;;;24.90;38.00;;;;;;2254484;61;1554;-65
2020/12/21 02:11:04;121161904.00;403.87;72055000.00;69601.00;0.23;121.07;;;;;24.90;38.10;;;;;;2247541;61;1396;-66
2020/12/21 02:13:34;4421417.00;14.74;10360.39;63705.00;0.21;110.88;;;;;24.90;38.10;;;;;;2251692;61;1881;-65
2020/12/21 02:16:05;4674347.00;15.58;11341.23;31572.00;0.11;55.30;;;;;24.90;38.00;;;;;;2250825;61;1413;-65
2020/12/21 02:18:31;4319511.00;14.40;9983.45;54551.00;0.18;95.06;;;;;24.90;38.00;;;;;;2247611;61;1849;-66
2020/12/21 02:20:58;4398883.00;14.66;10276.16;108446.00;0.36;188.15;;;;;24.90;38.10;;;;;;2250849;61;1697;-66
2020/12/21 02:23:24;4367814.00;14.56;10160.85;138625.00;0.46;240.20;;;;;24.90;38.10;;;;;;2250699;61;2463;-65
2020/12/21 02:25:54;4345984.00;14.49;10080.39;104879.00;0.35;181.99;;;;;24.90;38.10;;;;;;2250989;61;1466;-65
2020/12/21 02:28:24;124686336.00;415.62;78533960.00;49321.00;0.16;86.01;;;;;24.90;38.00;;;;;;2250604;61;1497;-66
2020/12/21 02:30:50;5077499.00;16.92;13046.17;127876.00;0.43;221.67;;;;;24.90;38.00;;;;;;2247726;61;1826;-65
2020/12/21 02:33:17;3647122.00;12.16;7737.10;18652.00;0.06;32.94;;;;;24.90;38.00;;;;;;2251134;61;1509;-65
2020/12/21 02:35:43;121180112.00;403.93;72087528.00;135215.00;0.45;234.32;;;;;24.90;38.10;;;;;;2250912;61;1819;-65
2020/12/21 02:38:09;4588471.00;15.29;11000.82;61759.00;0.21;107.52;;;;;24.90;38.00;;;;;;2247590;61;1699;-66
2020/12/21 02:40:37;4510612.00;15.04;10698.80;87462.00;0.29;151.93;;;;;24.90;38.00;;;;;;2248716;61;1630;-66
2020/12/21 02:43:17;4887067.00;16.29;12218.38;10743.00;0.04;19.24;;;;;24.90;37.90;;;;;;2252209;61;1950;-65
2020/12/21 02:45:43;4981578.00;16.61;12624.08;144948.00;0.48;251.10;;;;;24.90;38.50;;;;;;2251542;61;1497;-65
2020/12/21 02:48:10;4810363.00;16.03;11896.42;112186.00;0.37;194.60;;;;;24.90;38.00;;;;;;2247707;61;2180;-66
2020/12/21 02:50:41;4693258.00;15.64;11417.24;55368.00;0.18;96.47;;;;;24.90;38.00;;;;;;2251679;61;1046;-65
2020/12/21 02:53:08;4449168.00;14.83;10464.83;120773.00;0.40;209.42;;;;;24.90;37.90;;;;;;2251020;61;1631;-65
2020/12/21 02:55:35;4703896.00;15.68;11460.16;90491.00;0.30;157.16;;;;;24.90;37.90;;;;;;2247852;61;1718;-65
2020/12/21 02:58:01;4603576.00;15.35;11060.14;15590.00;0.05;27.63;;;;;24.90;37.90;;;;;;2247823;61;1475;-65
2020/12/21 03:00:34;124755240.00;415.85;78664344.00;46080.00;0.15;80.41;;;;;24.90;38.00;;;;;;2248036;61;1578;-66
2020/12/21 03:03:02;3860693.00;12.87;8407.53;26871.00;0.09;47.17;;;;;24.90;38.00;;;;;;2249432;61;3747;-65
2020/12/21 03:05:35;4242688.00;14.14;9705.97;105810.00;0.35;183.60;;;;;24.90;38.00;;;;;;2234125;61;7831;-65
2020/12/21 03:08:05;121175552.00;403.92;72079392.00;71825.00;0.24;124.91;;;;;24.90;38.00;;;;;;2235326;61;6959;-65
2020/12/21 03:10:32;4708998.00;15.70;11480.79;84512.00;0.28;146.83;;;;;24.80;37.90;;;;;;2244463;61;7268;-66
2020/12/21 03:12:58;4536512.00;15.12;10798.58;39130.00;0.13;68.38;;;;;24.90;38.00;;;;;;2240632;61;7104;-66
2020/12/21 03:15:25;4249572.00;14.17;9730.60;97517.00;0.33;169.29;;;;;24.80;37.90;;;;;;2239096;61;7429;-66
2020/12/21 03:17:51;4182150.00;13.94;9491.28;54834.00;0.18;95.55;;;;;24.80;37.90;;;;;;2242162;61;7372;-66
2020/12/21 03:20:18;4253010.00;14.18;9742.92;64842.00;0.22;112.85;;;;;24.80;37.90;;;;;;2239479;61;7604;-65
2020/12/21 03:22:47;122310656.00;407.70;74125928.00;73540.00;0.25;127.88;;;;;24.80;38.50;;;;;;2240723;61;7588;-65
2020/12/21 03:25:14;4152237.00;13.84;9386.46;51739.00;0.17;90.19;;;;;24.80;37.90;;;;;;2245760;61;7044;-66
2020/12/21 03:27:41;4374727.00;14.58;10186.42;87125.00;0.29;151.34;;;;;24.80;37.90;;;;;;2241836;61;7416;-65
2020/12/21 03:30:09;4488538.00;14.96;10614.31;83604.00;0.28;145.26;;;;;24.80;37.80;;;;;;2242503;61;7184;-65
2020/12/21 03:32:36;4079486.00;13.60;9135.01;101685.00;0.34;176.48;;;;;24.80;37.90;;;;;;2241736;61;7282;-65
2020/12/21 03:35:23;3758350.00;12.53;8081.52;45442.00;0.15;79.30;;;;;24.80;37.80;;;;;;2242318;61;7171;-66
2020/12/21 03:37:49;3815872.00;12.72;8263.66;28708.00;0.10;50.35;;;;;24.80;37.80;;;;;;2235886;61;7196;-66
2020/12/21 03:40:19;3987784.00;13.29;8824.93;114147.00;0.38;197.99;;;;;24.90;37.90;;;;;;2240219;61;7402;-66
2020/12/21 03:42:45;3680575.00;12.27;7839.62;43019.00;0.14;75.11;;;;;24.80;37.70;;;;;;2241923;61;7474;-65
2020/12/21 03:45:12;3836327.00;12.79;8329.11;24150.00;0.08;42.46;;;;;24.80;37.80;;;;;;2239258;61;7629;-65
2020/12/21 03:47:39;3515682.00;11.72;7342.95;43956.00;0.15;76.73;;;;;24.80;37.80;;;;;;2241334;61;5681;-65
2020/12/21 03:50:05;3869778.00;12.90;8436.90;43844.00;0.15;76.54;;;;;24.80;37.80;;;;;;2245423;61;7120;-65
2020/12/21 03:52:35;4182632.00;13.94;9492.97;124625.00;0.42;216.06;;;;;24.80;37.70;;;;;;2240954;61;7193;-67
2020/12/21 03:55:01;120061880.00;400.21;70108448.00;75877.00;0.25;131.91;;;;;24.80;37.60;;;;;;2241608;61;6901;-65
2020/12/21 03:57:28;4175234.00;13.92;9466.97;45306.00;0.15;79.07;;;;;24.80;37.70;;;;;;2238549;61;7397;-65
2020/12/21 04:00:07;3773673.00;12.58;8129.77;20462.00;0.07;36.07;;;;;24.80;37.60;;;;;;2239491;61;7113;-65
2020/12/21 04:02:34;4473483.00;14.91;10556.96;103327.00;0.34;179.31;;;;;24.80;37.20;;;;;;2240847;61;5972;-65
2020/12/21 04:05:07;3646852.00;12.16;7736.28;59588.00;0.20;103.76;;;;;24.80;37.70;;;;;;2242271;61;5922;-65
2020/12/21 04:07:35;5059187.00;16.86;12964.78;138283.00;0.46;239.61;;;;;24.80;37.60;;;;;;2237115;61;7066;-65
2020/12/21 04:10:07;4386008.00;14.62;10228.26;233514.00;0.78;403.59;;;;;24.80;37.60;;;;;;2241348;61;7749;-66
2020/12/21 04:12:35;4377285.00;14.59;10195.90;130756.00;0.44;226.63;;;;;24.80;37.60;;;;;;2244309;61;7431;-67
2020/12/21 04:15:05;4463975.00;14.88;10520.86;87375.00;0.29;151.77;;;;;24.80;37.60;;;;;;2241850;61;7274;-66
2020/12/21 04:17:32;3614367.00;12.05;7637.59;91585.00;0.31;159.04;;;;;24.80;37.60;;;;;;2238423;61;7478;-66
2020/12/21 04:19:58;4092890.00;13.64;9180.98;83781.00;0.28;145.57;;;;;24.80;37.50;;;;;;2244319;61;7398;-66
2020/12/21 04:22:24;120445024.00;401.48;70782392.00;75492.00;0.25;131.25;;;;;24.80;37.60;;;;;;2245823;61;7325;-65
2020/12/21 04:24:51;4317018.00;14.39;9974.36;54609.00;0.18;95.16;;;;;24.80;37.60;;;;;;2244990;61;7314;-65
2020/12/21 04:27:17;4659843.00;15.53;11283.19;96217.00;0.32;167.04;;;;;24.80;37.50;;;;;;2238938;61;7171;-66
2020/12/21 04:29:44;4194504.00;13.98;9534.81;143835.00;0.48;249.18;;;;;24.80;37.50;;;;;;2241403;61;7368;-66
2020/12/21 04:32:11;4468614.00;14.90;10538.46;95270.00;0.32;165.41;;;;;24.90;37.60;;;;;;2235273;61;7709;-66
2020/12/21 04:34:44;4239433.00;14.13;9694.34;197755.00;0.66;342.06;;;;;24.80;37.50;;;;;;2241302;61;7165;-65
2020/12/21 04:37:11;4500984.00;15.00;10661.89;46228.00;0.15;80.66;;;;;24.80;37.50;;;;;;2236209;61;7560;-66
2020/12/21 04:39:37;5067792.00;16.89;13002.98;46574.00;0.16;81.26;;;;;24.70;37.50;;;;;;2239317;61;7366;-65
2020/12/21 04:42:03;3616609.00;12.06;7644.38;26661.00;0.09;46.80;;;;;24.70;37.50;;;;;;2233965;61;6419;-66
2020/12/21 04:44:34;4572368.00;15.24;10937.84;115478.00;0.38;200.28;;;;;24.70;37.60;;;;;;2238809;61;7107;-66
2020/12/21 04:47:00;4134793.00;13.78;9325.73;131466.00;0.44;227.86;;;;;24.70;37.70;;;;;;2240397;61;5560;-66
2020/12/21 04:49:26;3699483.00;12.33;7897.97;9655.00;0.03;17.35;;;;;24.70;37.80;;;;;;2240887;61;7418;-65
2020/12/21 04:51:53;4137803.00;13.79;9336.19;147975.00;0.49;256.32;;;;;24.70;37.70;;;;;;2241369;61;7519;-66
2020/12/21 04:54:20;3778770.00;12.60;8145.86;58427.00;0.19;101.76;;;;;24.70;37.60;;;;;;2238130;61;5869;-65
2020/12/21 04:56:50;126056448.00;420.19;81153968.00;107079.00;0.36;185.79;;;;;24.70;37.50;;;;;;2242672;61;7680;-65
2020/12/21 04:59:20;4717265.00;15.72;11514.27;25902.00;0.09;45.49;;;;;24.80;37.50;;;;;;2242086;61;7213;-66
2020/12/21 05:01:46;120567584.00;401.89;70998888.00;46255.00;0.15;80.71;;;;;24.80;37.50;;;;;;2239921;61;8288;-66
2020/12/21 05:04:16;4523094.00;15.08;10746.80;71581.00;0.24;124.49;;;;;24.80;37.50;;;;;;2238317;61;7259;-67
2020/12/21 05:06:53;123785368.00;412.62;76842224.00;105493.00;0.35;183.05;;;;;24.80;37.50;;;;;;2241932;61;7673;-65
2020/12/21 05:09:23;4262768.00;14.21;9777.95;95738.00;0.32;166.21;;;;;24.80;37.50;;;;;;2243723;61;7595;-66
2020/12/21 05:11:55;3906317.00;13.02;8555.75;5875.00;0.02;10.80;;;;;24.80;37.50;;;;;;2238261;61;7644;-65
2020/12/21 05:14:33;4372691.00;14.58;10178.88;79794.00;0.27;138.68;;;;;24.80;37.50;;;;;;2239089;61;6254;-65
2020/12/21 05:17:09;4465706.00;14.89;10527.43;135565.00;0.45;234.92;;;;;24.70;37.50;;;;;;2241856;61;5840;-66
2020/12/21 05:19:36;4682060.00;15.61;11372.18;115701.00;0.39;200.67;;;;;24.70;37.50;;;;;;2245138;61;7206;-66
2020/12/21 05:22:02;3850370.00;12.83;8374.24;59479.00;0.20;103.58;;;;;24.70;37.50;;;;;;2241407;61;7310;-66
2020/12/21 05:24:32;123777888.00;412.59;76828272.00;72319.00;0.24;125.77;;;;;24.70;37.50;;;;;;2243209;61;7411;-66
2020/12/21 05:27:18;4481212.00;14.94;10586.37;27699.00;0.09;48.60;;;;;24.80;37.50;;;;;;2241638;61;7455;-66
2020/12/21 05:29:54;137045264.00;456.82;104307240.00;54338.00;0.18;94.69;;;;;24.80;37.50;;;;;;2243175;61;5973;-66
2020/12/21 05:32:21;4552052.00;15.17;10858.77;240768.00;0.80;416.07;;;;;24.70;37.50;;;;;;2241685;61;5858;-65
2020/12/21 05:34:48;4410267.00;14.70;10318.65;108603.00;0.36;188.42;;;;;24.70;37.60;;;;;;2238248;61;7474;-66
2020/12/21 05:37:16;3854752.00;12.85;8388.36;161059.00;0.54;278.86;;;;;24.70;37.50;;;;;;2234555;61;6285;-66
2020/12/21 05:39:55;3659432.00;12.20;7774.72;137955.00;0.46;239.05;;;;;24.80;37.60;;;;;;2242828;61;7206;-66
2020/12/21 05:42:22;4359387.00;14.53;10129.73;65233.00;0.22;113.52;;;;;24.70;37.50;;;;;;2242410;61;7871;-65
2020/12/21 05:44:54;124737552.00;415.79;78630864.00;66491.00;0.22;115.70;;;;;24.70;37.50;;;;;;2242683;61;7383;-65
2020/12/21 05:47:21;3504739.00;11.68;7310.74;50531.00;0.17;88.10;;;;;24.70;37.70;;;;;;2242556;61;7344;-65
2020/12/21 05:49:59;4156492.00;13.85;9401.32;81753.00;0.27;142.07;;;;;24.70;37.80;;;;;;2244270;61;7516;-65
2020/12/21 05:52:36;3932070.00;13.11;8640.21;128264.00;0.43;222.34;;;;;24.60;37.80;;;;;;2243202;61;5491;-65
2020/12/21 05:55:14;4194774.00;13.98;9535.76;84362.00;0.28;146.57;;;;;24.50;37.90;;;;;;2242095;61;6907;-66
2020/12/21 05:57:41;4769333.00;15.90;11726.85;145391.00;0.48;251.86;;;;;24.50;38.10;;;;;;2240708;61;5739;-65
2020/12/21 06:00:10;121070848.00;403.57;71892520.00;99114.00;0.33;172.04;;;;;24.50;38.20;;;;;;2240837;61;7543;-65
2020/12/21 06:02:37;4270687.00;14.24;9806.44;147143.00;0.49;254.88;;;;;24.40;38.20;;;;;;2242002;61;5664;-65
2020/12/21 06:05:07;3910618.00;13.04;8569.82;81654.00;0.27;141.89;;;;;24.50;38.10;;;;;;2240741;61;6197;-65
2020/12/21 06:07:35;3734808.00;12.45;8007.77;82436.00;0.27;143.24;;;;;24.50;38.20;;;;;;2241385;61;7454;-65
2020/12/21 06:10:09;4188451.00;13.96;9513.46;95885.00;0.32;166.47;;;;;24.60;37.90;;;;;;2244857;61;6640;-65
2020/12/21 06:12:50;124313176.00;414.38;77830304.00;105902.00;0.35;183.76;;;;;24.70;37.80;;;;;;2245462;61;5518;-65
2020/12/21 06:15:21;3659840.00;12.20;7775.97;34393.00;0.11;60.19;;;;;24.90;37.90;;;;;;2245425;61;5866;-65
2020/12/21 06:17:48;4163553.00;13.88;9426.02;160930.00;0.54;278.64;;;;;24.90;37.50;;;;;;2244568;61;6015;-65
2020/12/21 06:20:20;4262626.00;14.21;9777.44;71400.00;0.24;124.18;;;;;25.10;37.30;;;;;;2238050;61;7237;-65
2020/12/21 06:22:51;4133947.00;13.78;9322.79;79942.00;0.27;138.94;;;;;25.10;37.10;;;;;;2242007;61;7306;-65
2020/12/21 06:25:22;4228841.00;14.10;9656.56;75712.00;0.25;131.63;;;;;25.20;36.90;;;;;;2242973;61;5892;-66
2020/12/21 06:27:50;4791780.00;15.97;11819.39;188024.00;0.63;325.31;;;;;25.30;36.70;;;;;;2238851;61;5910;-65
2020/12/21 06:30:16;4450525.00;14.84;10469.95;138315.00;0.46;239.67;;;;;25.40;36.60;;;;;;2240298;61;7590;-65
2020/12/21 06:32:45;4209904.00;14.03;9589.27;113970.00;0.38;197.68;;;;;25.40;36.50;;;;;;2238498;61;5557;-66
2020/12/21 06:35:19;3712055.00;12.37;7936.93;25770.00;0.09;45.26;;;;;25.40;36.50;;;;;;2241683;61;5868;-65
2020/12/21 06:38:02;3791393.00;12.64;8185.81;88219.00;0.29;153.23;;;;;25.50;36.30;;;;;;2241460;61;7194;-65
2020/12/21 06:40:34;3555510.00;11.85;7460.94;81718.00;0.27;142.00;;;;;25.60;36.20;;;;;;2239456;61;6096;-68
2020/12/21 06:43:14;121682848.00;405.61;72989296.00;19646.00;0.07;34.66;;;;;25.70;36.20;;;;;;2240934;61;5717;-71
2020/12/21 06:45:42;4487808.00;14.96;10611.52;188755.00;0.63;326.57;;;;;25.80;36.10;;;;;;2239710;61;7211;-65
2020/12/21 06:48:08;4891297.00;16.30;12236.32;130949.00;0.44;226.97;;;;;25.80;36.00;;;;;;2241336;61;7415;-66
2020/12/21 06:50:36;3997194.00;13.32;8856.41;63134.00;0.21;109.89;;;;;25.80;36.00;;;;;;2240572;61;5759;-66
2020/12/21 06:53:07;122736720.00;409.12;74904016.00;145435.00;0.48;251.94;;;;;25.90;36.00;;;;;;2237718;61;5778;-65
2020/12/21 06:55:35;126529256.00;421.76;82071448.00;192529.00;0.64;333.06;;;;;26.00;36.00;;;;;;2240920;61;6883;-66
2020/12/21 06:58:02;5166547.00;17.22;13447.55;139011.00;0.46;240.87;;;;;26.00;36.00;;;;;;2237769;61;7175;-66
2020/12/21 07:00:33;4911215.00;16.37;12321.08;137273.00;0.46;237.87;;;;;26.10;35.90;;;;;;2243326;61;7121;-65
2020/12/21 07:03:04;5798665.00;19.33;16575.46;113478.00;0.38;196.83;;;;;26.10;35.90;;;;;;2241335;61;5573;-65
2020/12/21 07:05:34;5321309.00;17.74;14167.46;82126.00;0.27;142.71;;;;;26.10;35.90;;;;;;2244311;61;7375;-65
2020/12/21 07:08:00;4993558.00;16.65;12676.22;78312.00;0.26;136.12;;;;;26.20;35.90;;;;;;2238619;61;7530;-65
2020/12/21 07:10:30;4780381.00;15.93;11772.33;87272.00;0.29;151.60;;;;;26.20;35.80;;;;;;2242867;61;7127;-66
2020/12/21 07:12:58;5687526.00;18.96;15988.67;84935.00;0.28;147.56;;;;;26.20;35.70;;;;;;2242821;61;7335;-65
2020/12/21 07:15:24;5103060.00;17.01;13160.44;85503.00;0.29;148.54;;;;;26.20;36.20;;;;;;2244065;61;5527;-65
2020/12/21 07:17:53;5628916.00;18.76;15685.74;84108.00;0.28;146.13;;;;;26.30;36.00;;;;;;2243754;61;7524;-65
2020/12/21 07:20:19;5210689.00;17.37;13649.97;152794.00;0.51;264.62;;;;;26.40;35.90;;;;;;2244103;61;5709;-66
2020/12/21 07:22:46;4501106.00;15.00;10662.35;149872.00;0.50;259.59;;;;;26.50;35.90;;;;;;2241031;61;7417;-65
2020/12/21 07:25:12;5729090.00;19.10;16206.21;173520.00;0.58;300.33;;;;;26.70;35.70;;;;;;2238096;61;5657;-65
2020/12/21 07:27:39;4784288.00;15.95;11788.44;78917.00;0.26;137.17;;;;;26.80;35.50;;;;;;2243795;61;7754;-65
2020/12/21 07:30:09;5530371.00;18.43;15186.38;269809.00;0.90;466.02;;;;;26.80;35.70;;;;;;2242550;61;8324;-66
2020/12/21 07:32:35;5923250.00;19.74;17252.83;219409.00;0.73;379.33;;;;;27.00;35.20;;;;;;2240682;61;6879;-65
2020/12/21 07:35:04;4471444.00;14.90;10549.21;180247.00;0.60;311.91;;;;;27.10;35.00;;;;;;2237294;61;7531;-66
2020/12/21 07:37:32;5606933.00;18.69;15573.27;333247.00;1.11;575.07;;;;;27.20;34.90;;;;;;2246405;61;7610;-66
2020/12/21 07:39:58;5640692.00;18.80;15746.25;327200.00;1.09;564.67;;;;;27.20;34.60;;;;;;2240074;61;7560;-65
2020/12/21 07:42:27;4842179.00;16.14;12029.18;197485.00;0.66;341.59;;;;;27.40;34.60;;;;;;2235594;61;5737;-66
2020/12/21 07:45:03;6133715.00;20.45;18445.44;337150.00;1.12;581.78;;;;;27.50;34.20;;;;;;2244356;61;7298;-66
2020/12/21 07:47:34;7022671.00;23.41;24201.22;400862.00;1.34;691.29;;;;;27.50;34.00;;;;;;2236788;61;7370;-66
2020/12/21 07:50:02;126876152.00;422.92;82748976.00;301272.00;1.00;520.11;;;;;27.60;33.90;;;;;;2243427;61;5836;-65
2020/12/21 07:52:29;5595741.00;18.65;15516.24;251895.00;0.84;435.21;;;;;27.70;33.70;;;;;;2240451;61;7363;-66
2020/12/21 07:54:59;5820626.00;19.40;16693.34;242381.00;0.81;418.85;;;;;27.80;33.50;;;;;;2241039;61;7294;-66
2020/12/21 07:57:29;7511261.00;25.04;27903.04;459418.00;1.53;791.98;;;;;27.80;32.50;;;;;;2243001;61;7249;-67
2020/12/21 07:59:57;126867336.00;422.89;82731712.00;465287.00;1.55;802.08;;;;;27.70;30.60;;;;;;2243409;61;5597;-67
2020/12/21 08:02:25;6831013.00;22.77;22857.10;453413.00;1.51;781.65;;;;;27.60;29.60;;;;;;2243913;61;6913;-67
2020/12/21 08:04:52;6971815.00;23.24;23838.79;263419.00;0.88;455.03;;;;;27.50;28.90;;;;;;2236473;61;8196;-66
2020/12/21 08:07:18;6641245.00;22.14;21583.62;274207.00;0.91;473.58;;;;;27.50;29.60;;;;;;2243704;61;8002;-65
2020/12/21 08:09:49;5644963.00;18.82;15768.24;228760.00;0.76;395.42;;;;;27.50;29.90;;;;;;2243704;61;6357;-65
2020/12/21 08:12:20;6150248.00;20.50;18541.75;332653.00;1.11;574.05;;;;;27.60;30.40;;;;;;2243606;61;6251;-66
2020/12/21 08:14:47;6187888.00;20.63;18762.47;189276.00;0.63;327.46;;;;;27.70;30.90;;;;;;2247370;61;6910;-66
2020/12/21 08:17:15;123614040.00;412.05;76523296.00;371112.00;1.24;640.15;;;;;27.80;31.10;;;;;;2239942;61;7401;-67
2020/12/21 08:19:56;130258560.00;434.20;89551920.00;606299.00;2.02;1045.10;;;;;27.90;31.30;;;;;;2243712;61;7391;-65
2020/12/21 08:22:24;6997968.00;23.33;24024.65;424972.00;1.42;732.74;;;;;28.10;31.40;;;;;;2244242;61;5674;-66
2020/12/21 08:25:09;6759850.00;22.53;22372.94;326098.00;1.09;562.78;;;;;28.30;31.50;;;;;;2244085;61;7758;-65
2020/12/21 08:27:43;7716947.00;25.72;29584.84;431371.00;1.44;743.74;;;;;28.50;31.50;;;;;;2242646;61;5930;-64
2020/12/21 08:30:21;7556921.00;25.19;28269.91;478101.00;1.59;824.13;;;;;28.60;31.40;;;;;;2246811;61;7187;-66
2020/12/21 08:32:52;7545691.00;25.15;28179.34;341903.00;1.14;589.94;;;;;28.70;31.40;;;;;;2243481;61;6871;-65
2020/12/21 08:35:27;7559038.00;25.20;28287.00;552822.00;1.84;952.82;;;;;28.70;31.50;;;;;;2243189;61;7206;-67
2020/12/21 08:38:11;7768192.00;25.89;30015.63;521856.00;1.74;899.46;;;;;28.80;31.60;;;;;;2243216;61;7319;-67
2020/12/21 08:40:38;7430985.00;24.77;27266.88;480240.00;1.60;827.81;;;;;28.80;31.70;;;;;;2243552;61;7226;-66
2020/12/21 08:43:04;123941816.00;413.14;77134208.00;309534.00;1.03;534.31;;;;;28.90;31.90;;;;;;2244027;61;5171;-68
2020/12/21 08:45:38;7791109.00;25.97;30209.82;380119.00;1.27;655.63;;;;;29.00;32.90;;;;;;2243250;61;7121;-68
2020/12/21 08:48:04;8390698.00;27.97;35638.96;545711.00;1.82;940.57;;;;;29.10;32.10;;;;;;2239216;61;7170;-67
2020/12/21 08:50:38;8751259.00;29.17;39240.80;389447.00;1.30;671.66;;;;;29.20;32.20;;;;;;2243606;61;3633;-68
2020/12/21 08:53:04;7788514.00;25.96;30187.79;497384.00;1.66;857.32;;;;;29.20;32.10;;;;;;2244980;61;5491;-67
2020/12/21 08:55:30;7843116.00;26.14;30654.06;517486.00;1.72;891.93;;;;;29.20;32.20;;;;;;2239434;61;6977;-67
2020/12/21 08:58:00;129261928.00;430.87;87510104.00;644115.00;2.15;1110.46;;;;;29.30;32.50;;;;;;2243377;61;7348;-67
2020/12/21 09:00:26;8839803.00;29.47;40165.72;672894.00;2.24;1160.26;;;;;29.40;32.40;;;;;;2239752;61;7749;-68
2020/12/21 09:02:55;127989768.00;426.63;84949240.00;745923.00;2.49;1286.97;;;;;29.40;32.40;;;;;;2243196;61;7120;-67